Time;durP1;ratioP1;P1;durP2;ratioP2;P2;SDS_P1;SDS_P2;PMS_P1;PMS_P2;Temp;Humidity;BMP_temperature;BMP_pressure;BME280_temperature;BME280_humidity;BME280_pressure;Samples;Min_cycle;Max_cycle;Signal;HPM_P1;HPM_P2
2021/01/03 00:00:59;;;;;;;76.57;29.90;;;7.90;73.60;;;;;;5022335;28;20241;-90
2021/01/03 00:03:25;;;;;;;60.13;29.17;;;7.70;73.30;;;;;;5022265;28;20186;-90
2021/01/03 00:05:51;;;;;;;69.10;29.37;;;7.80;73.70;;;;;;5021653;28;20233;-90
2021/01/03 00:08:16;;;;;;;54.63;28.13;;;7.80;73.70;;;;;;5020480;28;20759;-90
2021/01/03 00:10:42;;;;;;;73.33;29.60;;;7.90;73.70;;;;;;5019182;28;20575;-90
2021/01/03 00:13:08;;;;;;;73.22;30.70;;;8.00;73.60;;;;;;5020446;28;20439;-92
2021/01/03 00:15:34;;;;;;;65.43;28.70;;;8.00;73.50;;;;;;5018819;28;20246;-91
2021/01/03 00:17:59;;;;;;;75.97;30.90;;;8.10;73.40;;;;;;5027630;28;20175;-91
2021/01/03 00:20:28;;;;;;;56.80;27.70;;;7.90;72.80;;;;;;5031199;28;20209;-90
2021/01/03 00:22:54;;;;;;;74.10;30.17;;;7.90;72.80;;;;;;5034681;28;20202;-91
2021/01/03 00:25:22;;;;;;;72.47;30.57;;;7.60;73.00;;;;;;5032920;28;20205;-89
2021/01/03 00:27:49;;;;;;;56.85;28.83;;;7.70;73.50;;;;;;5011241;28;20494;-90
2021/01/03 00:30:17;;;;;;;63.17;27.58;;;7.90;73.80;;;;;;5010415;28;20206;-90
2021/01/03 00:32:44;;;;;;;79.20;31.42;;;7.90;73.80;;;;;;5014026;28;20246;-90
2021/01/03 00:35:15;;;;;;;76.85;31.48;;;8.00;73.70;;;;;;5004396;28;20191;-90
2021/01/03 00:37:41;;;;;;;70.85;32.72;;;8.10;73.60;;;;;;4998381;28;20187;-91
2021/01/03 00:40:10;;;;;;;72.67;31.57;;;8.10;72.80;;;;;;4999017;28;20192;-91
2021/01/03 00:42:36;;;;;;;60.92;28.95;;;8.10;72.60;;;;;;4998768;28;20227;-91
2021/01/03 00:45:04;;;;;;;78.13;34.30;;;8.20;72.60;;;;;;5006179;28;20198;-91
2021/01/03 00:47:30;;;;;;;80.60;37.03;;;8.20;72.50;;;;;;5036001;28;20174;-90
2021/01/03 00:49:56;;;;;;;71.67;35.40;;;8.30;72.30;;;;;;5027198;28;20206;-90
2021/01/03 00:52:21;;;;;;;64.30;34.60;;;8.20;72.00;;;;;;5018471;28;20559;-90
2021/01/03 00:54:47;;;;;;;76.23;33.83;;;8.20;72.10;;;;;;5009733;28;20430;-90
2021/01/03 00:57:13;;;;;;;67.60;33.63;;;8.20;72.10;;;;;;4996066;28;20274;-91
2021/01/03 00:59:38;;;;;;;69.03;33.10;;;8.20;72.10;;;;;;4995812;28;20207;-91
2021/01/03 01:02:04;;;;;;;75.00;34.70;;;8.10;72.20;;;;;;4997400;28;20207;-90
2021/01/03 01:04:30;;;;;;;76.13;34.40;;;8.10;72.10;;;;;;4996080;28;20190;-90
2021/01/03 01:06:55;;;;;;;63.13;30.80;;;8.10;72.10;;;;;;4996147;28;20186;-90
2021/01/03 01:09:21;;;;;;;65.23;30.47;;;8.10;72.00;;;;;;4997899;28;20199;-90
2021/01/03 01:11:47;;;;;;;70.73;29.67;;;8.10;71.80;;;;;;4995925;28;20560;-90
2021/01/03 01:14:12;;;;;;;60.00;27.97;;;8.00;71.70;;;;;;4996477;28;20180;-90
2021/01/03 01:16:39;;;;;;;55.13;26.67;;;7.80;71.80;;;;;;4996233;28;20754;-90
2021/01/03 01:19:05;;;;;;;54.95;26.15;;;7.70;72.30;;;;;;4996035;28;20195;-89
2021/01/03 01:21:31;;;;;;;65.70;28.05;;;7.50;72.60;;;;;;4996474;28;20202;-89
2021/01/03 01:23:57;;;;;;;63.50;27.80;;;7.60;73.10;;;;;;4999861;28;20242;-90
2021/01/03 01:26:23;;;;;;;68.10;28.67;;;7.60;74.20;;;;;;4996623;28;20425;-89
2021/01/03 01:28:49;;;;;;;61.42;25.33;;;7.60;73.60;;;;;;4996990;28;20514;-89
2021/01/03 01:31:15;;;;;;;56.72;26.67;;;7.50;73.90;;;;;;4996340;28;20270;-90
2021/01/03 01:33:41;;;;;;;79.27;29.70;;;7.50;74.40;;;;;;4997197;28;20611;-89
2021/01/03 01:36:07;;;;;;;59.83;27.80;;;7.60;74.30;;;;;;4996432;28;20183;-89
2021/01/03 01:38:33;;;;;;;70.38;28.38;;;7.50;74.00;;;;;;4996885;28;20183;-89
2021/01/03 01:40:59;;;;;;;60.92;28.52;;;7.40;74.10;;;;;;4999562;28;20636;-89
2021/01/03 01:43:25;;;;;;;66.70;29.42;;;7.20;74.60;;;;;;5000273;28;20172;-89
2021/01/03 01:45:50;;;;;;;64.53;30.60;;;7.30;74.90;;;;;;5010804;28;20216;-87
2021/01/03 01:48:36;;;;;;;68.20;29.77;;;7.30;74.50;;;;;;5018786;28;20417;-88
2021/01/03 01:51:05;;;;;;;73.60;29.40;;;7.20;74.10;;;;;;5022203;28;20261;-88
2021/01/03 01:53:56;;;;;;;67.72;28.20;;;7.30;74.30;;;;;;5019766;28;20646;-88
2021/01/03 01:56:54;;;;;;;87.13;31.85;;;7.40;74.20;;;;;;5021852;28;20178;-88
2021/01/03 02:00:16;;;;;;;75.88;31.75;;;7.20;74.30;;;;;;5026022;28;20199;-88
2021/01/03 02:10:08;;;;;;;70.30;28.83;;;7.00;75.50;;;;;;5037305;28;20229;-87
2021/01/03 02:12:42;;;;;;;85.63;30.13;;;7.10;75.80;;;;;;5030571;28;20182;-89
2021/01/03 02:15:21;;;;;;;74.10;28.45;;;7.20;75.80;;;;;;5021530;28;20175;-88
2021/01/03 02:17:47;;;;;;;84.50;29.70;;;7.30;75.50;;;;;;5019179;28;20209;-88
2021/01/03 02:20:15;;;;;;;92.70;32.90;;;7.20;75.70;;;;;;5015186;28;20602;-89
2021/01/03 02:23:05;;;;;;;100.50;35.08;;;7.40;75.60;;;;;;5015553;28;20221;-89
2021/01/03 02:25:31;;;;;;;78.03;29.85;;;7.30;75.80;;;;;;5015578;28;20174;-88
2021/01/03 02:28:27;;;;;;;87.78;32.67;;;7.10;76.10;;;;;;5017020;28;20177;-87
2021/01/03 02:30:54;;;;;;;83.85;31.95;;;7.20;76.50;;;;;;5020714;28;20241;-88
2021/01/03 02:33:30;;;;;;;99.60;31.38;;;7.10;76.80;;;;;;5016341;28;20171;-88
2021/01/03 02:36:03;;;;;;;77.07;33.45;;;7.30;77.10;;;;;;5000705;28;20274;-90
2021/01/03 02:38:33;;;;;;;93.55;30.80;;;7.20;77.00;;;;;;5003767;28;20171;-88
2021/01/03 02:40:59;;;;;;;79.20;30.70;;;6.80;77.80;;;;;;5010842;28;20269;-89
2021/01/03 02:43:24;;;;;;;92.80;33.40;;;6.70;78.30;;;;;;5011102;28;20713;-88
2021/01/03 02:45:51;;;;;;;92.07;32.00;;;6.70;78.40;;;;;;5006616;28;20191;-88
2021/01/03 02:48:28;;;;;;;84.70;29.17;;;6.90;78.40;;;;;;5005080;28;20203;-86
2021/01/03 02:50:54;;;;;;;86.32;32.20;;;6.90;77.90;;;;;;5007157;28;20195;-87
2021/01/03 02:53:20;;;;;;;105.70;33.20;;;6.90;78.30;;;;;;5008219;28;20175;-87
2021/01/03 02:55:46;;;;;;;89.70;31.45;;;7.00;78.00;;;;;;4999961;28;20418;-87
2021/01/03 02:58:13;;;;;;;87.90;33.58;;;7.00;77.60;;;;;;5003629;28;20184;-88
2021/01/03 03:00:39;;;;;;;93.57;32.78;;;6.80;77.80;;;;;;5010501;28;20245;-89
2021/01/03 06:21:45;;;;;;;82.32;26.20;;;6.60;78.10;;;;;;5061723;23;20226;-89
